Historyczne dane pomiarowe

Dodano dane terminowe – wersja testowa.

Dane z okresu 1951-2019

Wersja bazy: 1.34 [2019-03-16, lista zmian], aktualizacja planowana na 2019-04-15

Dane meteo z obszaru Polski uzyskane na podstawie danych udostępnionych przez Instytut Meteorologii i Gospodarki Wodnej – Państwowy Instytut Badawczy.

 

Wybierz Datę:    

       

TemperaturaWilgotnośćZachmurzenieWiatrCiśnienieWidzialnośćZjawiska
 Data    tng td wb rh cc ccl cl cm ch dir g1 g2 mslp ppp      
1999-07-25 00:00:00 11.1--- 10.0 10.593wxwxwxwx2wx--1023.1 998.1 0.0---wx
1999-07-25 01:00:00 10.7--- 9.8 10.294wxwxwx2wx--1022.9 997.9----wx
1999-07-25 02:00:00 11.5--- 10.8 11.195wxwxwx2wx--1022.7 997.8----wx
1999-07-25 03:00:00 11.2--- 10.7 10.996wxwxwx2wx--1022.9 997.9----wx
1999-07-25 04:00:00 10.6--- 10.1 10.396wxwx2wx--1023.0 998.0----wx
1999-07-25 05:00:00 12.5--- 11.4 11.993wxwx1wx--1023.1 998.2----wx
1999-07-25 06:00:00 14.7--- 11.8 13.083wxwx0wx--1022.9 998.2 0.0---wx
1999-07-25 07:00:00 17.4--- 12.5 14.573wxwx0wx--1022.5 998.1----wx
1999-07-25 08:00:00 19.6--- 11.6 14.960wxwx1wx--1022.0 997.8----wx
1999-07-25 09:00:00 21.0--- 11.0 15.153wxwxwx2wx--1021.6 997.5----wx
1999-07-25 10:00:00 21.5--- 11.8 15.754wxwxwx2wx--1021.2 997.1----wx
1999-07-25 11:00:00 23.6--- 13.8 17.554wxwxwx1wx--1020.4 996.5----wx
1999-07-25 12:00:00 23.6--- 12.6 16.950wxwxwx2wx--1019.9 996.0 0.0---wx
1999-07-25 13:00:00 23.8--- 12.1 16.748wxwxwx3wx--1019.2 995.4----wx
1999-07-25 14:00:00 24.4--- 12.9 17.349wxwxwx3wx--1018.7 994.9----wx
1999-07-25 15:00:00 25.0--- 12.4 17.346wxwxwx2wx--1018.4 994.7----wx
1999-07-25 16:00:00 24.8--- 13.4 17.749wxwxwxwx2wx--1018.1 994.4----wx
1999-07-25 17:00:00 24.4--- 13.2 17.550wxwx2wx--1018.1 994.3----wx
1999-07-25 18:00:00 23.8--- 13.7 17.553wxwx1wx--1018.1 994.3 0.0---wx
1999-07-25 19:00:00 21.8--- 13.7 16.860wxwx0wx--1018.3 994.3----wx
1999-07-25 20:00:00 17.6--- 14.0 15.479wxwx0wx--1018.7 994.4----wx
1999-07-25 21:00:00 16.4--- 13.8 14.884wxwx2wx--1018.8 994.4----wx
1999-07-25 22:00:00 15.8--- 13.5 14.486wxwx2wx--1018.6 994.1----wx
1999-07-25 23:00:00 15.2--- 12.5 13.684wxwx1wx--1018.4 993.9----wx

 

Źródłem pochodzenia danych jest Instytut Meteorologii i Gospodarki Wodnej – Państwowy Instytut Badawczy. Dane Instytutu Meteorologii i Gospodarki Wodnej – Państwowego Instytutu Badawczego zostały przetworzone.

Dane źródłowe można odnaleźć na stronie https://dane.imgw.pl